Ashley, Michigan
Current Conditions -  °F | °C
As of 1:55 PM on Friday 31 Oct 2014 (Local Time) from KAMN Reporting Station
Light Rain Light Rain  
Wind Chill: 26°   Ceiling: 1100
Heat Index: 36°   Visibility: 7mi
Dew Point: 33°   Wind: 15mph
Humidity: 91%   Direction: 10°N
Pressure: 30.03"   Gusts: 28mph
Location:  43.19°N, 84.47°W
Report Text: KAMN 311755Z AUTO 01013G24KT 7SM -RA BKN011 OVC018 02/01 A3003 RMK AO2 T00200007 10051 20020
Loading
Personal Weather Stations






























Interactive Weather Map
Tropical Storm Tracking
New forecast layout! Learn more

10-Day Weather Forecast

Advertisements
Track Severe Weather on mobile